createdAt,value
2019-05-02T00:00:33.063Z,27.70
2019-05-02T00:01:33.215Z,27.20
2019-05-02T00:02:33.358Z,27.60
2019-05-02T00:03:35.871Z,27.50
2019-05-02T00:04:33.656Z,27.90
2019-05-02T00:05:33.805Z,26.20
2019-05-02T00:06:38.211Z,28.50
2019-05-02T00:07:34.099Z,26.20
2019-05-02T00:08:34.425Z,27.60
2019-05-02T00:09:34.397Z,25.80
2019-05-02T00:10:34.546Z,28.50
2019-05-02T00:11:34.692Z,27.90
2019-05-02T00:12:34.840Z,29.00
2019-05-02T00:13:34.987Z,27.60
2019-05-02T00:14:35.135Z,27.10
2019-05-02T00:15:38.263Z,28.40
2019-05-02T00:16:35.436Z,29.10
2019-05-02T00:17:35.581Z,29.10
2019-05-02T00:18:37.084Z,30.40
2019-05-02T00:19:35.882Z,31.00
2019-05-02T00:20:36.025Z,29.00
2019-05-02T00:21:38.205Z,28.10
2019-05-02T00:22:36.321Z,31.80
2019-05-02T00:23:36.470Z,28.50
2019-05-02T00:24:39.390Z,28.30
2019-05-02T00:25:36.793Z,31.20
2019-05-02T00:26:36.943Z,31.90
2019-05-02T00:27:37.671Z,32.80
2019-05-02T00:28:37.239Z,28.80
2019-05-02T00:29:37.387Z,27.60
2019-05-02T00:30:37.535Z,27.50
2019-05-02T00:31:37.699Z,27.60
2019-05-02T00:32:37.830Z,29.20
2019-05-02T00:33:37.979Z,27.60
2019-05-02T00:34:38.128Z,30.10
2019-05-02T00:35:40.881Z,28.30
2019-05-02T00:36:38.429Z,28.80
2019-05-02T00:37:38.570Z,26.90
2019-05-02T00:38:39.872Z,29.80
2019-05-02T00:39:38.865Z,32.30
2019-05-02T00:40:39.013Z,28.80
2019-05-02T00:41:40.504Z,27.90
2019-05-02T00:42:39.311Z,33.30
2019-05-02T00:43:39.459Z,28.10
2019-05-02T00:44:42.094Z,27.60
2019-05-02T00:45:39.764Z,26.50
2019-05-02T00:46:39.906Z,27.50
2019-05-02T00:47:42.172Z,29.00
2019-05-02T00:48:40.200Z,30.00
2019-05-02T00:49:40.349Z,28.80
2019-05-02T00:50:44.955Z,27.40
2019-05-02T00:51:40.647Z,26.40
2019-05-02T00:52:40.796Z,29.20
2019-05-02T00:53:44.477Z,27.40
2019-05-02T00:54:41.089Z,29.10
2019-05-02T00:55:41.239Z,24.70
2019-05-02T00:56:44.198Z,30.30
2019-05-02T00:57:41.535Z,25.70
2019-05-02T00:58:41.682Z,30.70
2019-05-02T00:59:42.453Z,27.90
2019-05-02T01:00:41.979Z,28.50
2019-05-02T01:01:42.130Z,27.30
2019-05-02T01:02:42.275Z,25.50
2019-05-02T01:03:42.421Z,27.70
2019-05-02T01:04:42.571Z,29.80
2019-05-02T01:05:42.718Z,28.40
2019-05-02T01:06:44.640Z,28.70
2019-05-02T01:07:43.017Z,27.60
2019-05-02T01:08:43.165Z,31.20
2019-05-02T01:09:46.871Z,30.40
2019-05-02T01:10:43.460Z,28.70
2019-05-02T01:11:43.607Z,30.50
2019-05-02T01:12:44.363Z,30.00
2019-05-02T01:13:43.903Z,29.70
2019-05-02T01:14:44.051Z,31.80
2019-05-02T01:15:44.363Z,32.70
2019-05-02T01:16:44.346Z,29.00
2019-05-02T01:17:44.495Z,27.80
2019-05-02T01:18:44.644Z,34.30
2019-05-02T01:19:47.214Z,31.70
2019-05-02T01:20:44.938Z,29.60
2019-05-02T01:21:45.086Z,29.10
2019-05-02T01:22:47.212Z,29.70
2019-05-02T01:23:45.384Z,30.80
2019-05-02T01:24:45.532Z,28.80
2019-05-02T01:25:47.389Z,26.90
2019-05-02T01:26:45.825Z,29.90
2019-05-02T01:27:45.971Z,27.20
2019-05-02T01:28:49.275Z,28.90
2019-05-02T01:29:46.268Z,27.90
2019-05-02T01:30:46.413Z,28.00
2019-05-02T01:31:49.927Z,25.50
2019-05-02T01:32:46.709Z,27.90
2019-05-02T01:33:46.856Z,27.80
2019-05-02T01:34:48.993Z,26.60
2019-05-02T01:35:47.150Z,31.00
2019-05-02T01:36:47.297Z,27.90
2019-05-02T01:37:51.033Z,27.50
2019-05-02T01:38:47.597Z,28.30
2019-05-02T01:39:47.741Z,27.10
2019-05-02T01:40:48.070Z,29.70
2019-05-02T01:41:48.033Z,29.40
2019-05-02T01:42:49.021Z,27.60
2019-05-02T01:43:48.333Z,29.30
2019-05-02T01:44:48.480Z,28.80
2019-05-02T01:45:48.628Z,26.90
2019-05-02T01:46:48.776Z,30.20
2019-05-02T01:47:48.925Z,30.20
2019-05-02T01:48:49.071Z,26.70
2019-05-02T01:49:52.031Z,26.80
2019-05-02T01:50:49.368Z,25.70
2019-05-02T01:51:49.516Z,31.50
2019-05-02T01:52:53.614Z,26.30
2019-05-02T01:53:49.812Z,28.30
2019-05-02T01:54:49.961Z,29.40
2019-05-02T01:55:51.867Z,29.50
2019-05-02T01:56:50.258Z,26.10
2019-05-02T01:57:50.406Z,25.00
2019-05-02T01:58:53.079Z,26.50
2019-05-02T01:59:50.703Z,26.90
2019-05-02T02:00:50.850Z,25.90
2019-05-02T02:01:53.086Z,28.40
2019-05-02T02:02:51.145Z,27.60
2019-05-02T02:03:51.289Z,25.40
2019-05-02T02:04:52.202Z,25.00
2019-05-02T02:05:51.588Z,25.10
2019-05-02T02:06:51.736Z,23.30
2019-05-02T02:07:55.573Z,26.50
2019-05-02T02:08:52.034Z,25.10
2019-05-02T02:09:52.180Z,27.70
2019-05-02T02:10:56.636Z,28.00
2019-05-02T02:11:52.475Z,25.80
2019-05-02T02:13:03.656Z,25.10
2019-05-02T02:13:52.768Z,25.30
2019-05-02T02:14:53.606Z,27.10
2019-05-02T02:15:53.063Z,24.00
2019-05-02T02:16:53.211Z,25.50
2019-05-02T02:17:53.383Z,23.50
2019-05-02T02:18:53.505Z,23.80
2019-05-02T02:19:53.652Z,25.80
2019-05-02T02:20:53.800Z,25.40
2019-05-02T02:21:57.430Z,25.30
2019-05-02T02:22:54.095Z,24.20
2019-05-02T02:23:54.242Z,26.50
2019-05-02T02:24:56.035Z,24.10
2019-05-02T02:25:54.537Z,23.40
2019-05-02T02:26:54.684Z,24.50
2019-05-02T02:27:59.208Z,25.80
2019-05-02T02:28:54.980Z,26.00
2019-05-02T02:29:55.126Z,26.30
2019-05-02T02:30:57.943Z,25.10
2019-05-02T02:31:55.423Z,23.90
2019-05-02T02:33:00.684Z,23.90
2019-05-02T02:33:55.720Z,23.50
2019-05-02T02:34:55.868Z,25.20
2019-05-02T02:35:56.013Z,24.20
2019-05-02T02:36:56.161Z,23.00
2019-05-02T02:37:56.307Z,24.60
2019-05-02T02:38:56.459Z,23.20
2019-05-02T02:39:56.604Z,22.20
2019-05-02T02:40:56.750Z,22.30
2019-05-02T02:41:56.899Z,23.40
2019-05-02T02:42:57.047Z,23.60
2019-05-02T02:44:00.567Z,22.50
2019-05-02T02:44:57.353Z,26.30
2019-05-02T02:45:59.516Z,26.60
2019-05-02T02:46:57.635Z,22.50
2019-05-02T02:47:59.855Z,24.50
2019-05-02T02:48:58.000Z,22.50
2019-05-02T02:50:02.276Z,25.10
2019-05-02T02:50:58.227Z,26.30
2019-05-02T02:52:04.253Z,23.10
2019-05-02T02:52:58.524Z,23.70
2019-05-02T02:54:03.745Z,23.60
2019-05-02T02:54:58.815Z,25.70
2019-05-02T02:56:01.767Z,25.50
2019-05-02T02:56:59.109Z,27.30
2019-05-02T02:58:04.817Z,27.20
2019-05-02T02:58:59.403Z,27.20
2019-05-02T03:01:31.594Z,24.00
2019-05-02T03:02:31.738Z,26.10
2019-05-02T03:03:35.112Z,28.10
2019-05-02T03:04:32.028Z,25.20
2019-05-02T03:05:32.177Z,25.20
2019-05-02T03:06:32.321Z,24.10
2019-05-02T03:07:32.467Z,27.10
2019-05-02T03:08:32.602Z,24.00
2019-05-02T03:09:32.785Z,24.10
2019-05-02T03:10:32.936Z,26.80
2019-05-02T03:11:33.077Z,32.30
2019-05-02T03:12:36.272Z,27.80
2019-05-02T03:13:50.432Z,29.90
2019-05-02T03:14:33.512Z,30.50
2019-05-02T03:15:33.658Z,27.30
2019-05-02T03:16:33.805Z,29.00
2019-05-02T03:17:33.951Z,24.90
2019-05-02T03:18:40.542Z,26.10
2019-05-02T03:19:34.241Z,26.00
2019-05-02T03:20:39.986Z,29.10
2019-05-02T03:21:34.536Z,25.80
2019-05-02T03:22:41.357Z,29.80
2019-05-02T03:23:34.830Z,29.50
2019-05-02T03:24:36.521Z,34.10
2019-05-02T03:25:50.037Z,28.80
2019-05-02T03:26:35.270Z,33.60
2019-05-02T03:27:37.139Z,28.80
2019-05-02T03:28:35.564Z,27.20
2019-05-02T03:29:43.961Z,30.90
2019-05-02T03:30:37.651Z,32.90
2019-05-02T03:31:36.005Z,24.70
2019-05-02T03:32:36.593Z,27.60
2019-05-02T03:33:52.166Z,25.20
2019-05-02T03:34:47.547Z,28.90
2019-05-02T03:35:42.961Z,22.40
2019-05-02T03:36:37.305Z,24.00
2019-05-02T03:37:36.888Z,29.80
2019-05-02T03:38:37.040Z,25.80
2019-05-02T03:39:37.180Z,26.70
2019-05-02T03:40:39.266Z,21.50
2019-05-02T03:41:37.475Z,33.20
2019-05-02T03:42:44.817Z,25.40
2019-05-02T03:43:37.770Z,23.70
2019-05-02T03:44:37.915Z,28.30
2019-05-02T03:45:40.039Z,29.00
2019-05-02T03:46:38.224Z,23.20
2019-05-02T03:47:43.659Z,22.90
2019-05-02T03:48:38.519Z,25.80
2019-05-02T03:49:40.845Z,27.40
2019-05-02T03:50:38.811Z,26.50
2019-05-02T03:51:38.965Z,24.70
2019-05-02T03:52:43.468Z,25.80
2019-05-02T03:53:39.251Z,29.80
2019-05-02T03:54:48.441Z,28.30
2019-05-02T03:55:39.544Z,33.40
2019-05-02T03:56:44.627Z,30.30
2019-05-02T03:57:42.201Z,32.90
2019-05-02T03:58:40.000Z,24.40
2019-05-02T03:59:41.823Z,26.90
2019-05-02T04:00:40.278Z,27.60
2019-05-02T04:01:41.268Z,30.60
2019-05-02T04:02:40.572Z,31.40
2019-05-02T04:03:43.481Z,35.00
2019-05-02T04:04:40.864Z,33.40
2019-05-02T04:05:42.222Z,26.90
2019-05-02T04:06:41.160Z,33.40
2019-05-02T04:07:42.272Z,29.30
2019-05-02T04:08:41.448Z,32.10
2019-05-02T04:09:42.561Z,55.20
2019-05-02T04:10:41.751Z,34.70
2019-05-02T04:11:41.890Z,38.00
2019-05-02T04:12:42.040Z,34.10
2019-05-02T04:13:42.189Z,32.00
2019-05-02T04:14:42.334Z,31.90
2019-05-02T04:15:42.479Z,27.20
2019-05-02T04:16:48.486Z,27.50
2019-05-02T04:17:42.776Z,26.60
2019-05-02T04:18:54.502Z,27.30
2019-05-02T04:19:43.066Z,37.10
2019-05-02T04:20:43.494Z,44.40
2019-05-02T04:21:43.361Z,27.20
2019-05-02T04:22:49.071Z,27.80
2019-05-02T04:23:43.654Z,30.40
2019-05-02T04:24:48.010Z,41.40
2019-05-02T04:25:43.946Z,25.10
2019-05-02T04:26:53.649Z,29.50
2019-05-02T04:27:44.243Z,26.00
2019-05-02T04:28:49.273Z,33.80
2019-05-02T04:29:44.537Z,26.00
2019-05-02T04:30:45.180Z,34.40
2019-05-02T04:31:44.826Z,29.60
2019-05-02T04:32:49.866Z,35.80
2019-05-02T04:33:45.118Z,36.10
2019-05-02T04:34:49.153Z,32.70
2019-05-02T04:35:45.411Z,31.20
2019-05-02T04:36:46.791Z,24.40
2019-05-02T04:37:45.699Z,21.90
2019-05-02T04:38:48.785Z,26.60
2019-05-02T04:39:48.889Z,21.00
2019-05-02T04:40:48.885Z,23.70
2019-05-02T04:41:48.616Z,29.80
2019-05-02T04:42:51.272Z,23.40
2019-05-02T04:43:54.596Z,21.70
2019-05-02T04:45:08.796Z,23.40
2019-05-02T04:45:55.836Z,22.40
2019-05-02T04:46:48.881Z,32.70
2019-05-02T04:47:54.740Z,29.20
2019-05-02T04:48:49.731Z,33.20
2019-05-02T04:49:51.534Z,25.10
2019-05-02T04:50:48.351Z,33.80
2019-05-02T04:51:59.881Z,24.60
2019-05-02T04:52:53.641Z,21.70
2019-05-02T04:53:49.792Z,22.80
2019-05-02T04:54:48.894Z,21.90
2019-05-02T04:55:52.066Z,21.10
2019-05-02T04:56:53.441Z,24.60
2019-05-02T04:57:51.040Z,21.40
2019-05-02T04:58:49.655Z,22.10
2019-05-02T04:59:50.642Z,24.20
2019-05-02T05:00:53.674Z,26.50
2019-05-02T05:01:56.673Z,23.70
2019-05-02T05:02:52.989Z,22.70
2019-05-02T05:03:58.234Z,25.30
2019-05-02T05:04:49.671Z,24.10
2019-05-02T05:05:49.797Z,27.20
2019-05-02T05:06:58.154Z,26.70
2019-05-02T05:07:50.090Z,29.00
2019-05-02T05:08:50.237Z,24.10
2019-05-02T05:09:58.096Z,28.20
2019-05-02T05:10:50.532Z,23.90
2019-05-02T05:11:53.796Z,37.60
2019-05-02T05:12:50.824Z,26.40
2019-05-02T05:13:52.561Z,21.80
2019-05-02T05:14:51.121Z,32.60
2019-05-02T05:15:51.907Z,31.40
2019-05-02T05:16:55.524Z,28.60
2019-05-02T05:17:51.561Z,32.70
2019-05-02T05:18:53.196Z,23.60
2019-05-02T05:19:51.854Z,30.80
2019-05-02T05:20:53.083Z,25.20
2019-05-02T05:21:56.709Z,33.40
2019-05-02T05:22:52.295Z,30.30
2019-05-02T05:23:59.498Z,27.60
2019-05-02T05:24:52.589Z,28.90
2019-05-02T05:25:55.845Z,25.00
2019-05-02T05:26:52.883Z,32.30
2019-05-02T05:27:57.553Z,24.40
2019-05-02T05:28:53.177Z,26.90
2019-05-02T05:29:58.379Z,23.20
2019-05-02T05:30:53.473Z,27.30
2019-05-02T05:31:55.026Z,23.10
2019-05-02T05:32:53.763Z,25.90
2019-05-02T05:33:53.911Z,26.40
2019-05-02T05:34:54.062Z,25.60
2019-05-02T05:35:54.207Z,40.90
2019-05-02T05:36:54.355Z,25.40
2019-05-02T05:37:54.501Z,32.40
2019-05-02T05:38:54.651Z,31.20
2019-05-02T05:39:54.796Z,24.30
2019-05-02T05:40:54.945Z,34.10
2019-05-02T05:41:55.091Z,34.20
2019-05-02T05:42:57.238Z,26.80
2019-05-02T05:43:57.413Z,31.20
2019-05-02T05:44:55.531Z,44.90
2019-05-02T05:46:06.084Z,32.40
2019-05-02T05:46:57.989Z,38.00
2019-05-02T05:47:57.592Z,30.70
2019-05-02T05:48:57.808Z,29.60
2019-05-02T05:49:57.579Z,24.60
2019-05-02T05:50:57.988Z,30.40
2019-05-02T05:52:02.051Z,28.30
2019-05-02T05:52:59.347Z,28.20
2019-05-02T05:54:02.807Z,30.00
2019-05-02T05:54:57.939Z,29.80
2019-05-02T05:56:01.007Z,28.90
2019-05-02T05:56:57.395Z,31.20
2019-05-02T05:58:00.995Z,35.00
2019-05-02T05:58:59.215Z,30.90
2019-05-02T05:59:58.402Z,33.60
2019-05-02T06:00:58.393Z,30.10
2019-05-02T06:01:58.135Z,34.50
2019-05-02T06:03:10.336Z,37.40
2019-05-02T06:03:58.331Z,36.00
2019-05-02T06:05:02.543Z,34.80
2019-05-02T06:05:58.628Z,43.20
2019-05-02T06:07:02.151Z,44.80
2019-05-02T06:07:58.921Z,35.40
2019-05-02T06:08:59.066Z,30.10
2019-05-02T06:10:02.383Z,40.00
2019-05-02T06:10:59.360Z,35.80
2019-05-02T06:11:59.511Z,34.80
2019-05-02T06:12:59.658Z,34.30
2019-05-02T06:13:59.804Z,34.10
2019-05-02T06:15:01.671Z,30.30
2019-05-02T06:16:02.850Z,32.00
2019-05-02T06:17:00.249Z,39.00
2019-05-02T06:18:04.696Z,35.00
2019-05-02T06:19:00.547Z,33.40
2019-05-02T06:20:00.697Z,34.40
2019-05-02T06:21:06.837Z,39.10
2019-05-02T06:22:00.988Z,36.10
2019-05-02T06:23:01.323Z,32.30
2019-05-02T06:24:01.285Z,31.20
2019-05-02T06:25:01.434Z,29.60
2019-05-02T06:26:07.584Z,30.90
2019-05-02T06:27:01.729Z,31.30
2019-05-02T06:28:05.418Z,29.20
2019-05-02T06:29:02.027Z,33.80
2019-05-02T06:30:02.174Z,36.00
2019-05-02T06:31:07.263Z,31.90
2019-05-02T06:32:02.472Z,29.30
2019-05-02T06:33:02.625Z,31.90
2019-05-02T06:34:07.123Z,28.30
2019-05-02T06:35:02.919Z,30.00
2019-05-02T06:36:03.068Z,32.90
2019-05-02T06:37:03.241Z,28.50
2019-05-02T06:38:03.358Z,27.60
2019-05-02T06:39:03.511Z,29.80
2019-05-02T06:40:08.107Z,32.80
2019-05-02T06:41:03.805Z,28.60
2019-05-02T06:42:03.953Z,28.50
2019-05-02T06:43:09.232Z,30.30
2019-05-02T06:44:04.251Z,30.50
2019-05-02T06:45:04.401Z,28.10
2019-05-02T06:46:15.444Z,31.70
2019-05-02T06:47:05.706Z,30.60
2019-05-02T06:48:04.846Z,33.80
2019-05-02T06:49:04.992Z,32.20
2019-05-02T06:50:05.146Z,30.50
2019-05-02T06:51:05.290Z,28.80
2019-05-02T06:52:05.439Z,29.20
2019-05-02T06:53:09.747Z,29.00
2019-05-02T06:54:05.737Z,30.10
2019-05-02T06:55:05.887Z,31.50
2019-05-02T06:56:08.001Z,31.10
2019-05-02T06:57:06.181Z,30.10
2019-05-02T06:58:08.137Z,32.30
2019-05-02T06:59:06.479Z,28.30
2019-05-02T07:00:06.860Z,31.60
2019-05-02T07:01:06.776Z,25.90
2019-05-02T07:02:06.923Z,30.60
2019-05-02T07:03:10.129Z,31.30
2019-05-02T07:04:07.221Z,30.00
2019-05-02T07:05:07.371Z,29.60
2019-05-02T07:06:07.869Z,28.80
2019-05-02T07:07:07.669Z,32.70
2019-05-02T07:08:11.706Z,30.40
2019-05-02T07:09:08.034Z,30.50
2019-05-02T07:10:08.118Z,30.30
2019-05-02T07:11:08.264Z,31.80
2019-05-02T07:12:09.891Z,32.50
2019-05-02T07:13:10.665Z,31.40
2019-05-02T07:14:13.647Z,30.10
2019-05-02T07:15:08.952Z,29.60
2019-05-02T07:16:10.514Z,29.10
2019-05-02T07:17:09.158Z,31.90
2019-05-02T07:18:10.581Z,31.00
2019-05-02T07:19:09.457Z,31.20
2019-05-02T07:20:09.606Z,29.20
2019-05-02T07:21:12.198Z,31.30
2019-05-02T07:22:09.904Z,34.00
2019-05-02T07:23:10.612Z,31.60
2019-05-02T07:24:10.203Z,31.40
2019-05-02T07:25:10.352Z,32.90
2019-05-02T07:26:10.516Z,30.30
2019-05-02T07:27:10.650Z,31.50
2019-05-02T07:28:10.900Z,31.30
2019-05-02T07:29:10.949Z,33.10
2019-05-02T07:30:11.100Z,37.40
2019-05-02T07:31:12.047Z,34.30
2019-05-02T07:32:11.396Z,34.40
2019-05-02T07:33:11.548Z,31.90
2019-05-02T07:34:12.974Z,35.30
2019-05-02T07:35:11.844Z,32.90
2019-05-02T07:36:11.997Z,33.20
2019-05-02T07:37:12.655Z,32.80
2019-05-02T07:38:12.296Z,36.00
2019-05-02T07:39:12.443Z,34.50
2019-05-02T07:40:16.986Z,35.10
2019-05-02T07:41:12.744Z,33.30
2019-05-02T07:42:12.889Z,33.70
2019-05-02T07:43:19.238Z,41.60
2019-05-02T07:44:13.195Z,36.40
2019-05-02T07:45:13.343Z,36.40
2019-05-02T07:46:16.216Z,35.80
2019-05-02T07:47:13.642Z,35.60
2019-05-02T07:48:17.749Z,43.40
2019-05-02T07:49:13.941Z,40.60
2019-05-02T07:50:14.091Z,37.70
2019-05-02T07:51:17.247Z,41.20
2019-05-02T07:52:14.394Z,42.60
2019-05-02T07:53:14.551Z,39.50
2019-05-02T07:54:14.693Z,39.40
2019-05-02T07:55:14.841Z,38.70
2019-05-02T07:56:17.717Z,44.10
2019-05-02T07:57:15.146Z,49.20
2019-05-02T07:58:15.295Z,45.70
2019-05-02T07:59:18.701Z,54.20
2019-05-02T08:00:15.591Z,57.10
2019-05-02T08:01:15.745Z,54.90
2019-05-02T08:02:20.365Z,60.10
2019-05-02T08:03:16.053Z,57.50
2019-05-02T08:04:16.197Z,58.30
2019-05-02T08:05:21.892Z,58.90
2019-05-02T08:06:16.499Z,58.00
2019-05-02T08:07:21.100Z,56.60
2019-05-02T08:08:16.799Z,59.40
2019-05-02T08:09:16.961Z,56.70
2019-05-02T08:10:22.214Z,57.70
2019-05-02T08:11:17.249Z,60.10
2019-05-02T08:12:17.401Z,58.00
2019-05-02T08:13:19.301Z,60.40
2019-05-02T08:14:17.702Z,56.50
2019-05-02T08:15:17.850Z,59.70
2019-05-02T08:16:22.401Z,58.70
2019-05-02T08:17:19.295Z,55.80
2019-05-02T08:18:18.304Z,54.70
2019-05-02T08:19:18.454Z,57.20
2019-05-02T08:20:19.573Z,57.40
2019-05-02T08:21:18.753Z,54.00
2019-05-02T08:22:18.903Z,61.70
2019-05-02T08:23:20.458Z,58.00
2019-05-02T08:24:19.208Z,53.60
2019-05-02T08:25:19.357Z,54.90
2019-05-02T08:26:21.807Z,57.90
2019-05-02T08:27:22.763Z,61.50
2019-05-02T08:28:19.808Z,58.70
2019-05-02T08:29:23.428Z,59.80
2019-05-02T08:30:20.114Z,57.80
2019-05-02T08:31:20.976Z,56.40
2019-05-02T08:32:20.410Z,52.60
2019-05-02T08:33:20.559Z,54.00
2019-05-02T08:34:20.750Z,56.80
2019-05-02T08:35:20.861Z,56.30
2019-05-02T08:36:21.014Z,57.70
2019-05-02T08:37:21.160Z,57.50
2019-05-02T08:38:21.313Z,57.80
2019-05-02T08:39:26.010Z,53.80
2019-05-02T08:40:21.615Z,56.80
2019-05-02T08:41:21.769Z,57.40
2019-05-02T08:42:21.917Z,58.70
2019-05-02T08:43:22.069Z,56.70
2019-05-02T08:44:22.220Z,53.60
2019-05-02T08:45:22.377Z,53.30
2019-05-02T08:46:22.528Z,55.00
2019-05-02T08:47:23.783Z,52.40
2019-05-02T08:48:22.898Z,49.60
2019-05-02T08:49:22.984Z,52.40
2019-05-02T08:50:27.079Z,46.90
2019-05-02T08:51:23.282Z,52.40
2019-05-02T08:52:23.437Z,45.20
2019-05-02T08:53:23.585Z,47.50
2019-05-02T08:54:28.018Z,49.50
2019-05-02T08:55:23.888Z,53.40
2019-05-02T08:56:24.038Z,46.70
2019-05-02T08:57:24.270Z,46.20
2019-05-02T08:58:24.340Z,47.90
2019-05-02T08:59:26.093Z,48.40
2019-05-02T09:00:24.652Z,42.10
2019-05-02T09:01:34.604Z,45.90
2019-05-02T09:02:25.866Z,44.40
2019-05-02T09:03:25.098Z,45.80
2019-05-02T09:04:29.181Z,45.70
2019-05-02T09:05:25.392Z,47.00
2019-05-02T09:06:25.545Z,44.90
2019-05-02T09:07:25.733Z,49.20
2019-05-02T09:08:25.846Z,44.50
2019-05-02T09:09:28.044Z,47.40
2019-05-02T09:10:26.152Z,45.00
2019-05-02T09:11:26.303Z,40.90
2019-05-02T09:12:26.454Z,44.70
2019-05-02T09:13:29.380Z,40.80
2019-05-02T09:14:26.759Z,39.10
2019-05-02T09:15:26.907Z,42.40
2019-05-02T09:16:29.061Z,38.20
2019-05-02T09:17:36.117Z,41.10
2019-05-02T09:18:35.132Z,41.20
2019-05-02T09:19:27.516Z,40.20
2019-05-02T09:20:27.667Z,44.80
2019-05-02T09:21:34.265Z,43.70
2019-05-02T09:22:27.970Z,40.40
2019-05-02T09:23:35.373Z,42.40
2019-05-02T09:24:28.273Z,44.00
2019-05-02T09:25:28.423Z,46.60
2019-05-02T09:26:36.051Z,45.80
2019-05-02T09:27:28.728Z,41.50
2019-05-02T09:28:28.882Z,40.50
2019-05-02T09:29:29.044Z,38.20
2019-05-02T09:30:29.186Z,44.10
2019-05-02T09:31:29.338Z,43.80
2019-05-02T09:32:29.491Z,42.10
2019-05-02T09:33:29.644Z,41.90
2019-05-02T09:34:31.738Z,40.20
2019-05-02T09:35:29.947Z,34.20
2019-05-02T09:36:32.177Z,38.50
2019-05-02T09:37:32.010Z,39.50
2019-05-02T09:38:30.404Z,38.70
2019-05-02T09:39:32.708Z,43.00
2019-05-02T09:40:31.922Z,36.00
2019-05-02T09:41:32.431Z,42.90
2019-05-02T09:42:32.487Z,40.30
2019-05-02T09:43:37.503Z,40.50
2019-05-02T09:44:33.133Z,38.60
2019-05-02T09:45:33.403Z,34.80
2019-05-02T09:46:32.481Z,38.30
2019-05-02T09:47:34.469Z,39.20
2019-05-02T09:48:32.020Z,38.30
2019-05-02T09:49:32.492Z,37.30
2019-05-02T09:50:34.370Z,35.00
2019-05-02T09:51:32.580Z,34.30
2019-05-02T09:52:39.233Z,37.20
2019-05-02T09:53:32.695Z,32.80
2019-05-02T09:54:37.123Z,34.50
2019-05-02T09:55:33.003Z,32.30
2019-05-02T09:56:33.150Z,33.90
2019-05-02T09:57:33.303Z,33.60
2019-05-02T09:58:33.457Z,37.00
2019-05-02T09:59:33.685Z,32.90
2019-05-02T10:00:36.198Z,34.70
2019-05-02T10:01:33.922Z,28.70
2019-05-02T10:02:34.073Z,29.30
2019-05-02T10:03:34.233Z,32.40
2019-05-02T10:04:34.390Z,26.80
2019-05-02T10:05:34.548Z,24.00
2019-05-02T10:06:34.696Z,23.40
2019-05-02T10:07:34.850Z,27.70
2019-05-02T10:08:38.206Z,25.60
2019-05-02T10:09:35.160Z,29.50
2019-05-02T10:10:37.055Z,29.70
2019-05-02T10:11:35.469Z,29.90
2019-05-02T10:12:35.623Z,30.70
2019-05-02T10:13:35.785Z,28.30
2019-05-02T10:14:35.933Z,32.00
2019-05-02T10:15:36.086Z,29.70
2019-05-02T10:16:36.243Z,27.30
2019-05-02T10:17:37.543Z,30.10
2019-05-02T10:18:36.563Z,27.50
2019-05-02T10:19:41.181Z,28.80
2019-05-02T10:20:36.863Z,26.10
2019-05-02T10:21:37.020Z,29.90
2019-05-02T10:22:39.216Z,26.30
2019-05-02T10:23:37.326Z,26.30
2019-05-02T10:24:37.488Z,27.50
2019-05-02T10:25:38.931Z,26.60
2019-05-02T10:26:37.796Z,26.40
2019-05-02T10:27:38.480Z,24.60
2019-05-02T10:28:41.799Z,24.80
2019-05-02T10:29:38.264Z,26.60
2019-05-02T10:30:38.475Z,25.60
2019-05-02T10:31:38.632Z,28.40
2019-05-02T10:32:38.737Z,31.30
2019-05-02T10:33:38.883Z,30.60
2019-05-02T10:34:39.038Z,31.80
2019-05-02T10:35:40.832Z,27.70
2019-05-02T10:36:42.493Z,31.80
2019-05-02T10:37:39.673Z,29.50
2019-05-02T10:38:39.663Z,29.80
2019-05-02T10:39:39.819Z,34.10
2019-05-02T10:40:39.976Z,32.80
2019-05-02T10:41:41.732Z,30.40
2019-05-02T10:42:41.944Z,26.80
2019-05-02T10:43:42.328Z,25.40
2019-05-02T10:44:42.599Z,25.50
2019-05-02T10:45:42.505Z,24.10
2019-05-02T10:46:41.612Z,22.40
2019-05-02T10:47:42.267Z,24.50
2019-05-02T10:48:42.128Z,26.30
2019-05-02T10:49:42.606Z,24.90
2019-05-02T10:50:42.279Z,23.70
2019-05-02T10:51:49.012Z,25.40
2019-05-02T10:52:42.512Z,23.00
2019-05-02T10:53:42.493Z,27.30
2019-05-02T10:54:42.273Z,25.80
2019-05-02T10:55:42.655Z,25.20
2019-05-02T10:56:42.471Z,28.20
2019-05-02T10:57:42.620Z,28.30
2019-05-02T10:58:42.773Z,26.70
2019-05-02T10:59:42.931Z,27.30
2019-05-02T11:00:45.377Z,24.90
2019-05-02T11:01:43.241Z,23.00
2019-05-02T11:02:43.397Z,24.10
2019-05-02T11:03:47.367Z,24.50
2019-05-02T11:04:43.708Z,26.90
2019-05-02T11:05:43.865Z,27.40
2019-05-02T11:06:46.303Z,27.90
2019-05-02T11:07:44.176Z,29.60
2019-05-02T11:08:46.120Z,20.30
2019-05-02T11:09:44.488Z,18.90
2019-05-02T11:10:44.641Z,16.20
2019-05-02T11:11:44.798Z,19.50
2019-05-02T11:12:47.027Z,18.60
2019-05-02T11:13:45.117Z,18.20
2019-05-02T11:14:45.264Z,17.00
2019-05-02T11:15:45.422Z,15.50
2019-05-02T11:16:45.573Z,16.30
2019-05-02T11:17:45.728Z,14.80
2019-05-02T11:18:45.885Z,14.70
2019-05-02T11:19:46.039Z,23.10
2019-05-02T11:20:46.198Z,18.80
2019-05-02T11:21:55.557Z,15.60
2019-05-02T11:22:46.509Z,18.20
2019-05-02T11:23:46.680Z,18.80
2019-05-02T11:24:46.834Z,16.60
2019-05-02T11:25:46.971Z,20.50
2019-05-02T11:26:47.125Z,21.80
2019-05-02T11:27:47.282Z,31.80
2019-05-02T11:28:47.437Z,19.90
2019-05-02T11:29:47.595Z,20.60
2019-05-02T11:30:47.749Z,21.10
2019-05-02T11:31:47.903Z,20.10
2019-05-02T11:32:48.120Z,21.30
2019-05-02T11:33:48.246Z,23.10
2019-05-02T11:34:48.416Z,28.20
2019-05-02T11:35:49.286Z,25.70
2019-05-02T11:36:48.680Z,22.40
2019-05-02T11:37:48.835Z,20.20
2019-05-02T11:38:55.189Z,22.00
2019-05-02T11:39:52.555Z,20.00
2019-05-02T11:40:49.302Z,20.70
2019-05-02T11:41:49.458Z,23.40
2019-05-02T11:42:49.612Z,23.40
2019-05-02T11:43:49.768Z,24.10
2019-05-02T11:44:49.907Z,23.60
2019-05-02T11:45:54.187Z,24.90
2019-05-02T11:46:51.938Z,24.30
2019-05-02T11:47:50.376Z,24.50
2019-05-02T11:48:56.422Z,22.80
2019-05-02T11:49:52.104Z,25.30
2019-05-02T11:50:52.312Z,21.40
2019-05-02T11:51:52.733Z,21.20
2019-05-02T11:52:52.293Z,20.00
2019-05-02T11:53:52.626Z,22.30
2019-05-02T11:54:52.080Z,21.70
2019-05-02T11:55:53.177Z,21.70
2019-05-02T11:56:53.641Z,19.90
2019-05-02T11:57:52.404Z,22.50
2019-05-02T11:58:52.869Z,20.20
2019-05-02T11:59:52.246Z,20.20
2019-05-02T12:00:52.506Z,20.00
2019-05-02T12:01:59.376Z,17.10
2019-05-02T12:02:54.279Z,20.50
2019-05-02T12:03:52.871Z,19.20
2019-05-02T12:04:55.499Z,18.40
2019-05-02T12:05:53.181Z,19.90
2019-05-02T12:07:00.987Z,24.20
2019-05-02T12:07:53.492Z,22.30
2019-05-02T12:08:53.644Z,20.60
2019-05-02T12:09:57.023Z,19.30
2019-05-02T12:10:53.957Z,18.90
2019-05-02T12:11:56.607Z,19.30
2019-05-02T12:12:54.269Z,17.30
2019-05-02T12:13:56.916Z,15.70
2019-05-02T12:14:54.578Z,18.80
2019-05-02T12:15:54.736Z,19.00
2019-05-02T12:16:54.923Z,17.40
2019-05-02T12:17:55.045Z,19.90
2019-05-02T12:19:08.500Z,16.60
2019-05-02T12:19:55.355Z,16.40
2019-05-02T12:20:55.515Z,17.50
2019-05-02T12:21:55.665Z,20.70
2019-05-02T12:22:55.822Z,18.00
2019-05-02T12:23:56.007Z,20.40
2019-05-02T12:24:56.132Z,21.30
2019-05-02T12:25:56.288Z,20.10
2019-05-02T12:26:56.441Z,20.80
2019-05-02T12:27:56.597Z,23.00
2019-05-02T12:28:56.755Z,20.30
2019-05-02T12:29:59.328Z,20.40
2019-05-02T12:30:57.068Z,22.70
2019-05-02T12:31:57.222Z,22.70
2019-05-02T12:32:57.379Z,19.60
2019-05-02T12:33:57.534Z,23.30
2019-05-02T12:34:57.690Z,23.10
2019-05-02T12:35:57.847Z,25.90
2019-05-02T12:36:58.001Z,21.80
2019-05-02T12:37:58.158Z,23.30
2019-05-02T12:38:58.312Z,22.60
2019-05-02T12:39:58.466Z,23.30
2019-05-02T12:40:58.621Z,21.60
2019-05-02T12:41:59.087Z,21.60
2019-05-02T12:42:58.931Z,21.10
2019-05-02T12:43:59.085Z,22.90
2019-05-02T12:44:59.242Z,22.20
2019-05-02T12:45:59.395Z,22.90
2019-05-02T12:46:59.551Z,25.50
2019-05-02T12:48:02.209Z,17.90
2019-05-02T12:48:59.870Z,20.40
2019-05-02T12:50:00.025Z,18.70
2019-05-02T12:51:01.982Z,19.60
2019-05-02T12:52:01.700Z,20.10
2019-05-02T12:53:00.491Z,19.80
2019-05-02T12:54:02.267Z,18.70
2019-05-02T12:55:02.260Z,17.40
2019-05-02T12:56:02.218Z,18.00